Time;durP1;ratioP1;P1;durP2;ratioP2;P2;SDS_P1;SDS_P2;PMS_P1;PMS_P2;Temp;Humidity;BMP_temperature;BMP_pressure;BME280_temperature;BME280_humidity;BME280_pressure;Samples;Min_cycle;Max_cycle;Signal;HPM_P1;HPM_P2
2021/01/18 00:01:29;;;;;;;123.97;58.10;;;-5.70;96.90;;;;;;5107593;28;20648;-78
2021/01/18 00:03:55;;;;;;;117.72;61.58;;;-6.10;97.10;;;;;;5107924;28;20709;-78
2021/01/18 00:06:22;;;;;;;115.27;57.10;;;-5.80;99.20;;;;;;5106157;28;20275;-78
2021/01/18 00:08:48;;;;;;;117.55;63.20;;;-5.80;98.30;;;;;;5105612;28;20230;-78
2021/01/18 00:11:16;;;;;;;107.60;56.40;;;-5.60;98.20;;;;;;5105423;28;20572;-78
2021/01/18 00:13:43;;;;;;;107.88;58.38;;;-5.80;98.40;;;;;;5106898;28;20399;-78
2021/01/18 00:16:12;;;;;;;111.72;58.95;;;-5.80;98.60;;;;;;5105724;28;20216;-78
2021/01/18 00:18:37;;;;;;;125.25;63.47;;;-6.00;98.40;;;;;;5104481;28;20234;-78
2021/01/18 00:21:03;;;;;;;127.50;69.87;;;-5.90;98.40;;;;;;5104328;28;20168;-78
2021/01/18 00:23:29;;;;;;;129.47;66.70;;;-5.80;98.40;;;;;;5103750;28;20203;-78
2021/01/18 00:25:54;;;;;;;149.50;76.50;;;-5.90;99.00;;;;;;5102672;28;20180;-78
2021/01/18 00:28:20;;;;;;;152.70;84.83;;;-5.90;98.50;;;;;;5104953;28;20177;-78
2021/01/18 00:30:46;;;;;;;174.63;93.77;;;-5.80;99.30;;;;;;5103355;28;20218;-78
2021/01/18 00:33:11;;;;;;;156.03;80.53;;;-5.80;99.20;;;;;;5102196;28;20545;-78
2021/01/18 00:35:37;;;;;;;130.27;67.00;;;-5.90;99.20;;;;;;5116283;28;20195;-79
2021/01/18 00:38:03;;;;;;;115.33;60.93;;;-5.90;99.40;;;;;;5122092;28;20169;-79
2021/01/18 00:40:29;;;;;;;102.63;56.70;;;-5.80;99.40;;;;;;5103022;28;20448;-78
2021/01/18 00:42:55;;;;;;;98.87;49.27;;;-5.80;99.20;;;;;;5102654;28;20417;-79
2021/01/18 00:45:22;;;;;;;81.75;46.00;;;-5.70;99.60;;;;;;5102087;28;20181;-78
2021/01/18 00:47:53;;;;;;;97.93;51.88;;;-5.70;98.90;;;;;;5100876;28;20172;-78
2021/01/18 00:50:21;;;;;;;78.90;45.33;;;-5.60;98.70;;;;;;5101556;28;20179;-78
2021/01/18 00:52:49;;;;;;;83.65;44.05;;;-5.60;98.70;;;;;;5101767;28;20228;-78
2021/01/18 00:55:17;;;;;;;82.63;46.53;;;-5.50;99.30;;;;;;5100689;28;20212;-79
2021/01/18 00:57:43;;;;;;;88.38;46.20;;;-5.50;98.00;;;;;;5101089;28;20168;-79
2021/01/18 01:00:18;;;;;;;95.43;46.58;;;-5.50;98.30;;;;;;5102111;28;20249;-79
2021/01/18 01:02:46;;;;;;;76.72;45.72;;;-5.50;98.10;;;;;;5100660;28;20149;-78
2021/01/18 01:05:14;;;;;;;64.40;38.67;;;-5.50;97.50;;;;;;5100148;28;20220;-78
2021/01/18 01:07:42;;;;;;;77.82;41.80;;;-5.60;98.20;;;;;;5100033;28;20181;-78
2021/01/18 01:10:13;;;;;;;78.50;41.30;;;-5.60;97.50;;;;;;5100223;28;20275;-79
2021/01/18 01:12:39;;;;;;;66.18;39.00;;;-5.70;97.50;;;;;;5101993;28;20176;-79
2021/01/18 01:15:09;;;;;;;74.93;38.40;;;-5.80;97.40;;;;;;5099745;28;20212;-79
2021/01/18 01:17:45;;;;;;;70.03;38.53;;;-5.70;98.20;;;;;;5101275;28;20455;-79
2021/01/18 01:20:15;;;;;;;66.65;38.40;;;-5.80;97.50;;;;;;5100326;28;20577;-78
2021/01/18 01:22:41;;;;;;;73.88;39.60;;;-5.90;97.80;;;;;;5101667;28;20636;-79
2021/01/18 01:25:09;;;;;;;67.78;35.47;;;-5.80;98.10;;;;;;5101355;28;20189;-79
2021/01/18 01:27:35;;;;;;;72.72;39.17;;;-6.10;98.00;;;;;;5102557;28;20275;-79
2021/01/18 01:30:01;;;;;;;76.55;40.50;;;-6.00;98.40;;;;;;5100945;28;20252;-79
2021/01/18 01:32:26;;;;;;;63.28;37.22;;;-6.30;96.90;;;;;;5101057;28;20184;-79
2021/01/18 01:34:52;;;;;;;72.43;39.80;;;-6.30;98.70;;;;;;5100414;28;20211;-79
2021/01/18 01:37:18;;;;;;;68.13;39.73;;;-6.10;98.10;;;;;;5101383;28;20192;-79
2021/01/18 01:39:44;;;;;;;70.87;39.10;;;-6.10;97.40;;;;;;5102535;28;20237;-79
2021/01/18 01:42:23;;;;;;;78.03;45.70;;;-6.10;97.90;;;;;;5101628;28;20196;-79
2021/01/18 01:44:49;;;;;;;99.13;49.00;;;-6.00;97.70;;;;;;5102375;28;20430;-79
2021/01/18 01:47:28;;;;;;;82.00;45.10;;;-6.40;96.70;;;;;;5101680;28;20173;-79
2021/01/18 01:49:54;;;;;;;80.72;43.05;;;-6.30;98.20;;;;;;5100868;28;20180;-79
2021/01/18 01:52:23;;;;;;;85.70;45.38;;;-6.20;96.70;;;;;;5102561;28;20224;-79
2021/01/18 01:54:57;;;;;;;72.30;40.95;;;-6.50;96.90;;;;;;5101687;28;20211;-79
2021/01/18 01:57:25;;;;;;;71.90;39.90;;;-6.50;97.20;;;;;;5104113;28;20157;-79
2021/01/18 01:59:52;;;;;;;78.57;45.50;;;-6.40;96.60;;;;;;5103289;28;20184;-79
2021/01/18 02:02:19;;;;;;;84.15;47.65;;;-6.50;98.30;;;;;;5104201;28;20199;-79
2021/01/18 02:04:47;;;;;;;76.40;41.35;;;-6.60;97.80;;;;;;5103905;28;20188;-79
2021/01/18 02:07:39;;;;;;;76.22;44.00;;;-6.70;96.70;;;;;;5103464;28;20708;-79
2021/01/18 02:10:05;;;;;;;83.25;44.88;;;-6.50;97.70;;;;;;5102162;28;20207;-79
2021/01/18 02:12:31;;;;;;;73.22;43.42;;;-6.50;97.60;;;;;;5104160;28;20187;-79
2021/01/18 02:15:27;;;;;;;63.37;38.33;;;-6.50;97.30;;;;;;5103201;28;20306;-79
2021/01/18 02:18:15;;;;;;;70.90;39.65;;;-6.60;96.40;;;;;;5102155;28;20420;-79
2021/01/18 02:21:06;;;;;;;65.82;39.80;;;-6.80;96.40;;;;;;5104934;28;20183;-79
2021/01/18 02:23:50;;;;;;;68.72;36.78;;;-6.70;96.30;;;;;;5107452;28;20177;-79
2021/01/18 02:27:05;;;;;;;66.20;37.38;;;-6.70;95.90;;;;;;5106362;28;20172;-79
2021/01/18 02:30:03;;;;;;;62.97;38.65;;;-6.70;97.20;;;;;;5055249;28;20263;-79
2021/01/18 02:33:07;;;;;;;63.30;37.55;;;-6.70;95.80;;;;;;5108608;28;20163;-79
2021/01/18 02:35:46;;;;;;;69.13;41.95;;;-6.80;96.40;;;;;;5093794;28;20223;-79
2021/01/18 02:38:52;;;;;;;69.40;39.83;;;-6.80;97.30;;;;;;5106304;28;20167;-79
2021/01/18 02:41:31;;;;;;;71.07;42.88;;;-6.60;97.20;;;;;;5106992;28;20267;-79
2021/01/18 02:44:04;;;;;;;75.57;39.72;;;-6.70;96.90;;;;;;5105523;28;20188;-79
2021/01/18 02:46:31;;;;;;;72.00;43.35;;;-6.80;97.30;;;;;;5107593;28;20160;-79
2021/01/18 02:48:57;;;;;;;116.93;58.78;;;-6.90;97.10;;;;;;5106717;28;20177;-79
2021/01/18 02:51:25;;;;;;;81.22;43.92;;;-7.10;97.00;;;;;;5105654;28;20584;-79
2021/01/18 02:53:59;;;;;;;83.13;43.85;;;-7.20;96.80;;;;;;5105090;28;20316;-79
2021/01/18 02:56:27;;;;;;;74.10;41.10;;;-7.20;97.30;;;;;;5105825;28;20204;-79
2021/01/18 02:58:55;;;;;;;83.03;44.03;;;-7.10;97.30;;;;;;5106437;28;20629;-79
2021/01/18 03:01:44;;;;;;;75.22;39.55;;;-7.20;98.10;;;;;;5105338;28;20686;-79
2021/01/18 03:04:26;;;;;;;69.60;40.88;;;-6.90;98.30;;;;;;5105956;28;20234;-79
2021/01/18 03:07:06;;;;;;;85.43;43.72;;;-7.00;98.00;;;;;;5105208;28;20165;-79
2021/01/18 03:09:50;;;;;;;86.40;43.13;;;-6.80;97.40;;;;;;5105116;28;20244;-79
2021/01/18 03:12:21;;;;;;;76.65;39.55;;;-6.80;97.20;;;;;;5105287;28;20251;-79
2021/01/18 03:14:52;;;;;;;89.13;49.50;;;-7.00;97.10;;;;;;5106874;28;20212;-79
2021/01/18 03:17:22;;;;;;;127.55;70.57;;;-7.00;97.60;;;;;;5107208;28;20153;-79
2021/01/18 03:19:48;;;;;;;91.35;50.97;;;-7.10;97.70;;;;;;5107280;28;20176;-79
2021/01/18 03:22:30;;;;;;;66.15;39.35;;;-7.00;97.60;;;;;;5104990;28;20210;-79
2021/01/18 03:25:04;;;;;;;62.85;35.35;;;-6.80;97.50;;;;;;5106363;28;20553;-79
2021/01/18 03:27:47;;;;;;;61.97;34.30;;;-6.80;97.70;;;;;;5103737;28;20179;-79
2021/01/18 03:30:13;;;;;;;63.67;33.55;;;-6.70;97.20;;;;;;5104254;28;20224;-80
2021/01/18 03:32:39;;;;;;;56.67;34.03;;;-6.70;97.30;;;;;;5106899;28;20177;-80
2021/01/18 03:35:05;;;;;;;52.00;30.53;;;-6.70;96.80;;;;;;5108276;28;20255;-80
2021/01/18 03:37:31;;;;;;;58.42;32.20;;;-6.70;96.90;;;;;;5109191;28;20198;-79
2021/01/18 03:39:56;;;;;;;54.30;30.90;;;-6.70;96.50;;;;;;5112407;28;20185;-79
2021/01/18 03:42:22;;;;;;;53.80;30.70;;;-6.70;96.40;;;;;;5107429;28;20198;-79
2021/01/18 03:44:48;;;;;;;53.27;30.47;;;-6.70;96.10;;;;;;5109059;28;20210;-79
2021/01/18 03:47:13;;;;;;;49.10;27.97;;;-6.70;95.90;;;;;;5107977;28;20704;-79
2021/01/18 03:49:39;;;;;;;48.07;28.03;;;-6.70;96.20;;;;;;5107599;28;20207;-79
2021/01/18 03:52:04;;;;;;;53.80;28.40;;;-6.70;95.60;;;;;;5106757;28;20185;-79
2021/01/18 03:54:30;;;;;;;53.13;27.77;;;-6.80;95.90;;;;;;5108003;28;20208;-79
2021/01/18 03:56:56;;;;;;;51.67;28.70;;;-6.80;96.20;;;;;;5107000;28;20188;-79
2021/01/18 03:59:21;;;;;;;46.80;27.77;;;-6.70;96.30;;;;;;5110021;28;20184;-79
2021/01/18 04:01:47;;;;;;;49.90;28.63;;;-6.80;95.70;;;;;;5110063;28;20184;-79
2021/01/18 04:04:13;;;;;;;51.90;28.10;;;-6.80;95.90;;;;;;5112547;28;20190;-80
2021/01/18 04:06:39;;;;;;;48.23;27.23;;;-6.80;95.60;;;;;;5109312;28;20180;-80
2021/01/18 04:09:05;;;;;;;44.10;26.30;;;-6.80;95.70;;;;;;5112267;28;20200;-80
2021/01/18 04:11:31;;;;;;;50.83;28.97;;;-6.80;95.50;;;;;;5109359;28;20195;-80
2021/01/18 04:13:57;;;;;;;43.35;25.23;;;-6.80;95.80;;;;;;5112447;28;20400;-80
2021/01/18 04:16:23;;;;;;;47.33;28.63;;;-6.80;95.90;;;;;;5110962;28;20207;-80
2021/01/18 04:18:49;;;;;;;44.07;26.20;;;-6.80;95.70;;;;;;5109945;28;20404;-79
2021/01/18 04:21:18;;;;;;;46.40;25.40;;;-6.80;95.40;;;;;;5112568;28;20380;-79
2021/01/18 04:23:45;;;;;;;41.35;25.00;;;-6.80;95.50;;;;;;5112858;28;20541;-80
2021/01/18 04:26:10;;;;;;;40.92;25.00;;;-6.90;95.00;;;;;;5111297;28;20160;-80
2021/01/18 04:28:36;;;;;;;41.70;24.60;;;-6.80;95.20;;;;;;5109293;28;20161;-80
2021/01/18 04:31:03;;;;;;;38.28;23.02;;;-6.90;95.40;;;;;;5110915;28;20375;-80
2021/01/18 04:33:29;;;;;;;44.75;25.88;;;-6.90;95.50;;;;;;5110676;28;20169;-79
2021/01/18 04:35:55;;;;;;;37.70;22.20;;;-7.00;94.90;;;;;;5107980;28;20218;-80
2021/01/18 04:38:22;;;;;;;39.80;23.98;;;-7.10;95.20;;;;;;5113092;28;20178;-79
2021/01/18 04:40:48;;;;;;;41.83;23.63;;;-6.90;95.40;;;;;;5129452;28;20184;-80
2021/01/18 04:43:14;;;;;;;45.40;23.13;;;-7.10;95.60;;;;;;5127752;28;20242;-80
2021/01/18 04:45:41;;;;;;;36.58;23.17;;;-7.10;95.30;;;;;;5127352;28;20187;-80
2021/01/18 04:48:07;;;;;;;39.17;22.88;;;-7.00;95.30;;;;;;5129450;28;20164;-80
2021/01/18 04:50:33;;;;;;;38.67;21.52;;;-7.00;95.00;;;;;;5127958;28;20195;-80
2021/01/18 04:53:12;;;;;;;44.47;20.80;;;-6.90;95.20;;;;;;5126627;28;20275;-80
2021/01/18 04:55:43;;;;;;;36.40;21.33;;;-6.90;94.60;;;;;;5125679;28;20207;-80
2021/01/18 04:58:13;;;;;;;41.80;22.58;;;-6.80;94.60;;;;;;5126685;28;20156;-80
2021/01/18 05:00:48;;;;;;;34.55;20.13;;;-6.80;94.40;;;;;;5124227;28;20644;-80
2021/01/18 05:03:16;;;;;;;39.70;20.75;;;-6.80;94.00;;;;;;5125154;28;20151;-80
2021/01/18 05:05:45;;;;;;;36.03;21.30;;;-6.80;94.10;;;;;;5126423;27;20230;-80
2021/01/18 05:08:48;;;;;;;34.22;21.35;;;-6.80;94.00;;;;;;5126344;27;20218;-80
2021/01/18 05:11:15;;;;;;;40.00;22.67;;;-6.90;93.40;;;;;;5126946;28;20180;-80
2021/01/18 05:13:41;;;;;;;40.13;22.20;;;-7.00;94.00;;;;;;5127179;28;20180;-80
2021/01/18 05:16:07;;;;;;;36.53;21.85;;;-6.90;94.00;;;;;;5130250;27;20705;-80
2021/01/18 05:18:34;;;;;;;32.47;20.20;;;-6.80;94.00;;;;;;5127503;28;20264;-80
2021/01/18 05:21:02;;;;;;;37.53;20.50;;;-6.80;94.40;;;;;;5125145;28;20168;-80
2021/01/18 05:23:28;;;;;;;35.58;19.48;;;-6.80;94.30;;;;;;5126659;28;20524;-80
2021/01/18 05:26:25;;;;;;;39.10;20.23;;;-6.80;93.30;;;;;;5126137;28;20172;-80
2021/01/18 05:28:54;;;;;;;44.50;21.58;;;-6.90;93.40;;;;;;5124096;28;20182;-80
2021/01/18 05:31:29;;;;;;;36.97;21.08;;;-6.80;93.30;;;;;;5125481;28;20191;-80
2021/01/18 05:33:59;;;;;;;37.30;20.65;;;-6.90;93.40;;;;;;5129886;27;20183;-80
2021/01/18 05:36:38;;;;;;;35.17;21.60;;;-7.00;93.70;;;;;;5130379;28;20683;-80
2021/01/18 05:39:20;;;;;;;41.88;20.75;;;-7.00;93.00;;;;;;5128848;28;20192;-80
2021/01/18 05:41:56;;;;;;;40.15;20.70;;;-6.90;93.10;;;;;;5129466;28;20647;-80
2021/01/18 05:44:32;;;;;;;42.97;19.60;;;-6.90;92.80;;;;;;5129160;28;20175;-80
2021/01/18 05:47:06;;;;;;;33.88;16.90;;;-6.90;93.30;;;;;;5128903;28;20623;-80
2021/01/18 05:49:43;;;;;;;29.83;16.75;;;-6.40;94.90;;;;;;5129824;28;20194;-81
2021/01/18 05:52:27;;;;;;;38.42;18.63;;;-4.90;94.20;;;;;;5130705;28;20282;-80
2021/01/18 05:55:16;;;;;;;41.15;20.35;;;-4.10;93.20;;;;;;5129228;27;20195;-80
2021/01/18 05:57:55;;;;;;;38.45;19.20;;;-3.60;92.20;;;;;;5136001;27;20167;-80
2021/01/18 06:00:30;;;;;;;63.55;40.25;;;-3.30;91.90;;;;;;5134440;27;20167;-80
2021/01/18 06:02:57;;;;;;;51.40;29.80;;;-5.40;83.20;;;;;;5135100;27;20167;-81
2021/01/18 06:05:27;;;;;;;49.40;27.00;;;-6.40;89.30;;;;;;5132335;28;20179;-81
2021/01/18 06:07:53;;;;;;;54.85;30.80;;;-6.60;91.00;;;;;;5132853;28;20178;-81
2021/01/18 06:10:19;;;;;;;45.45;27.35;;;-6.90;91.70;;;;;;5137745;28;20175;-81
2021/01/18 06:12:45;;;;;;;39.43;23.13;;;-7.10;92.00;;;;;;5132921;28;20160;-81
2021/01/18 06:15:15;;;;;;;42.63;25.40;;;-7.50;92.70;;;;;;5133559;27;20410;-81
2021/01/18 06:17:51;;;;;;;43.28;23.90;;;-7.70;93.30;;;;;;5131572;28;20383;-79
2021/01/18 06:20:18;;;;;;;48.60;27.33;;;-7.80;94.20;;;;;;5133448;27;20207;-81
2021/01/18 06:22:52;;;;;;;43.38;26.23;;;-7.80;93.70;;;;;;5131621;28;20187;-81
2021/01/18 06:25:21;;;;;;;49.88;31.65;;;-7.80;94.00;;;;;;5133918;28;20671;-81
2021/01/18 06:27:47;;;;;;;52.50;30.23;;;-7.80;94.70;;;;;;5132455;27;20191;-81
2021/01/18 06:30:27;;;;;;;63.90;38.67;;;-7.80;94.80;;;;;;5132406;27;20632;-81
2021/01/18 06:33:00;;;;;;;64.38;38.97;;;-7.90;94.20;;;;;;5132852;28;20392;-81
2021/01/18 06:35:32;;;;;;;63.63;38.15;;;-8.00;95.10;;;;;;5131891;28;20208;-81
2021/01/18 06:38:04;;;;;;;69.97;39.38;;;-8.00;94.60;;;;;;5131206;27;20276;-81
2021/01/18 06:40:38;;;;;;;93.25;51.28;;;-8.10;94.80;;;;;;5111893;28;20184;-80
2021/01/18 06:43:06;;;;;;;64.07;40.30;;;-8.00;94.70;;;;;;5111903;28;20632;-80
2021/01/18 06:45:41;;;;;;;67.63;40.88;;;-8.10;94.70;;;;;;5113372;28;20203;-80
2021/01/18 06:48:08;;;;;;;98.53;55.00;;;-8.10;94.70;;;;;;5111701;28;20229;-80
2021/01/18 06:50:45;;;;;;;83.10;49.63;;;-8.20;94.00;;;;;;5112571;28;20185;-80
2021/01/18 06:53:16;;;;;;;69.57;41.45;;;-8.10;95.20;;;;;;5111904;28;20307;-81
2021/01/18 06:55:59;;;;;;;73.18;44.67;;;-8.10;94.00;;;;;;5111589;28;20631;-80
2021/01/18 06:58:44;;;;;;;74.80;47.00;;;-8.00;94.20;;;;;;5111687;28;20193;-80
2021/01/18 07:01:23;;;;;;;57.60;37.03;;;-8.00;94.40;;;;;;5111321;28;20172;-81
2021/01/18 07:03:54;;;;;;;59.00;36.33;;;-8.00;94.30;;;;;;5121855;28;20603;-80
2021/01/18 07:06:36;;;;;;;49.55;32.58;;;-7.80;94.70;;;;;;5131699;27;20221;-80
2021/01/18 07:09:13;;;;;;;41.67;26.35;;;-7.80;93.90;;;;;;5132609;28;20156;-81
2021/01/18 07:11:39;;;;;;;41.50;23.90;;;-7.70;94.00;;;;;;5132959;27;20163;-81
2021/01/18 07:14:07;;;;;;;48.50;25.80;;;-7.60;93.80;;;;;;5155544;27;20206;-80
2021/01/18 07:16:33;;;;;;;43.85;26.48;;;-7.50;93.40;;;;;;5139784;27;20207;-80
2021/01/18 07:19:01;;;;;;;35.78;22.67;;;-7.40;93.60;;;;;;5131795;28;20190;-80
2021/01/18 07:22:05;;;;;;;44.72;24.55;;;-7.20;94.20;;;;;;5127220;28;20187;-81
2021/01/18 07:24:33;;;;;;;49.55;26.63;;;-7.00;93.30;;;;;;5130102;28;20178;-81
2021/01/18 07:27:04;;;;;;;37.75;22.80;;;-6.80;93.20;;;;;;5130327;27;20190;-80
2021/01/18 07:29:32;;;;;;;45.80;25.83;;;-6.70;92.40;;;;;;5133526;27;20278;-80
2021/01/18 07:31:59;;;;;;;46.15;25.02;;;-6.70;92.50;;;;;;5122315;28;20271;-81
2021/01/18 07:34:28;;;;;;;58.47;28.60;;;-6.70;92.60;;;;;;5129208;27;20180;-80
2021/01/18 07:37:07;;;;;;;61.03;34.60;;;-6.60;93.20;;;;;;5131385;27;20648;-81
2021/01/18 07:39:38;;;;;;;63.75;37.92;;;-6.60;92.90;;;;;;5115401;28;20177;-80
2021/01/18 07:42:08;;;;;;;136.80;68.38;;;-6.40;93.00;;;;;;5126499;28;20574;-81
2021/01/18 07:44:46;;;;;;;108.80;55.63;;;-6.20;92.90;;;;;;5129071;28;20195;-81
2021/01/18 07:47:14;;;;;;;81.55;51.95;;;-5.90;91.90;;;;;;5129829;28;20186;-81
2021/01/18 07:49:41;;;;;;;64.07;40.53;;;-5.60;91.10;;;;;;5133720;28;20167;-81
2021/01/18 07:52:34;;;;;;;107.32;61.08;;;-5.40;90.10;;;;;;5124098;28;20675;-80
2021/01/18 07:55:04;;;;;;;123.60;68.45;;;-5.40;89.60;;;;;;5133214;28;20215;-81
2021/01/18 07:57:33;;;;;;;167.93;82.43;;;-5.10;90.70;;;;;;5129736;28;20173;-80
2021/01/18 08:00:19;;;;;;;85.18;48.03;;;-4.80;89.30;;;;;;5128692;28;20204;-80
2021/01/18 08:02:46;;;;;;;46.55;31.05;;;-4.40;86.70;;;;;;5125018;28;20179;-81
2021/01/18 08:05:35;;;;;;;40.55;26.52;;;-4.10;86.30;;;;;;5128234;28;20221;-81
2021/01/18 08:08:07;;;;;;;36.42;23.88;;;-3.80;84.50;;;;;;5127090;28;20708;-82
2021/01/18 08:10:54;;;;;;;33.05;22.58;;;-3.40;81.50;;;;;;5138170;27;20187;-82
2021/01/18 08:13:32;;;;;;;31.92;21.90;;;-3.00;79.60;;;;;;5130511;28;20191;-82
2021/01/18 08:16:19;;;;;;;36.50;24.35;;;-2.80;77.40;;;;;;5132032;28;20203;-82
2021/01/18 08:19:06;;;;;;;43.72;27.13;;;-2.60;77.80;;;;;;5120327;28;20172;-81
2021/01/18 08:21:35;;;;;;;81.70;53.20;;;-2.40;76.40;;;;;;5131399;28;20195;-82
2021/01/18 08:24:05;;;;;;;38.65;26.83;;;-2.10;74.90;;;;;;5128401;28;20206;-82
2021/01/18 08:26:56;;;;;;;34.42;24.13;;;-1.90;75.10;;;;;;5126538;28;20176;-82
2021/01/18 08:29:50;;;;;;;30.50;20.45;;;-1.90;74.90;;;;;;5131509;28;20164;-82
2021/01/18 08:32:33;;;;;;;30.08;21.30;;;-1.80;76.60;;;;;;5126558;28;20180;-82
2021/01/18 08:34:59;;;;;;;25.92;19.17;;;-1.60;75.10;;;;;;5131228;28;20215;-82
2021/01/18 08:37:26;;;;;;;34.28;22.27;;;-1.50;74.30;;;;;;5132235;28;20183;-82
2021/01/18 08:40:00;;;;;;;31.05;20.42;;;-1.40;76.10;;;;;;5128413;28;20697;-81
2021/01/18 08:42:33;;;;;;;33.10;19.92;;;-1.30;76.20;;;;;;5115905;28;20180;-81
2021/01/18 08:45:23;;;;;;;32.45;21.58;;;1.20;74.00;;;;;;5105326;28;20559;-82
2021/01/18 08:48:03;;;;;;;33.83;21.52;;;0.20;66.80;;;;;;5114061;28;20644;-82
2021/01/18 08:50:39;;;;;;;34.58;20.25;;;-0.50;71.50;;;;;;5113429;27;20663;-82
2021/01/18 08:53:23;;;;;;;29.13;21.55;;;-0.80;73.50;;;;;;5116488;27;20258;-82
2021/01/18 08:55:50;;;;;;;29.88;20.05;;;-0.90;75.00;;;;;;5108795;28;20679;-81
2021/01/18 08:58:33;;;;;;;33.80;22.13;;;-1.10;75.60;;;;;;5127733;27;20202;-82
2021/01/18 09:01:00;;;;;;;56.78;37.55;;;-1.20;75.90;;;;;;5112307;27;20210;-82
2021/01/18 09:03:26;;;;;;;62.88;43.00;;;-1.00;77.00;;;;;;5125013;27;20176;-82
2021/01/18 09:05:56;;;;;;;60.95;43.65;;;-1.00;76.10;;;;;;5116184;27;20666;-82
2021/01/18 09:08:27;;;;;;;36.30;25.70;;;-0.90;76.10;;;;;;5118581;27;20567;-81
2021/01/18 09:10:55;;;;;;;34.67;25.42;;;-0.70;75.50;;;;;;5111016;28;20176;-81
2021/01/18 09:13:23;;;;;;;42.67;27.77;;;-0.50;74.60;;;;;;5114374;28;20172;-82
2021/01/18 09:15:50;;;;;;;35.85;23.35;;;0.00;73.50;;;;;;5109183;28;20239;-81
2021/01/18 09:18:16;;;;;;;28.98;22.27;;;0.20;72.80;;;;;;5099703;28;20176;-82
2021/01/18 09:20:43;;;;;;;32.83;22.08;;;0.40;70.20;;;;;;5119402;28;20222;-82
2021/01/18 09:23:11;;;;;;;31.38;20.13;;;0.60;71.40;;;;;;5118155;27;20176;-82
2021/01/18 09:25:38;;;;;;;34.83;23.20;;;0.80;70.70;;;;;;5115051;27;20187;-82
2021/01/18 09:28:14;;;;;;;26.08;17.88;;;1.40;67.90;;;;;;5118554;27;20566;-82
2021/01/18 09:30:44;;;;;;;25.33;18.70;;;1.60;65.40;;;;;;5130938;27;20226;-82
2021/01/18 09:33:13;;;;;;;21.33;17.17;;;2.10;65.00;;;;;;5114767;28;20180;-82
2021/01/18 09:35:41;;;;;;;26.48;18.63;;;2.20;63.60;;;;;;5113192;28;20203;-82
2021/01/18 09:38:08;;;;;;;20.67;15.43;;;2.50;62.70;;;;;;5120835;28;20183;-82
2021/01/18 09:40:36;;;;;;;21.33;15.88;;;2.50;61.60;;;;;;5110529;28;20172;-81
2021/01/18 09:43:03;;;;;;;19.25;14.80;;;2.60;61.80;;;;;;5114213;28;20172;-82
2021/01/18 09:45:29;;;;;;;17.52;15.40;;;2.60;60.30;;;;;;5110942;28;20187;-81
2021/01/18 09:48:00;;;;;;;22.33;17.80;;;2.60;59.80;;;;;;5092506;28;20176;-81
2021/01/18 09:50:26;;;;;;;18.92;16.05;;;3.00;61.00;;;;;;5108826;28;20180;-81
2021/01/18 09:52:53;;;;;;;18.40;16.10;;;2.90;60.40;;;;;;5093516;28;20269;-81
2021/01/18 09:55:27;;;;;;;18.33;15.10;;;3.00;59.60;;;;;;5105152;28;20452;-81
2021/01/18 09:58:19;;;;;;;21.55;17.73;;;2.90;59.40;;;;;;5099337;28;20179;-81
2021/01/18 10:00:47;;;;;;;28.30;19.48;;;2.80;59.60;;;;;;5100077;28;20562;-82
2021/01/18 10:03:28;;;;;;;36.10;26.25;;;2.80;60.60;;;;;;5099180;28;20176;-82
2021/01/18 10:06:10;;;;;;;23.38;19.10;;;2.70;60.90;;;;;;5102546;28;20184;-82
2021/01/18 10:08:39;;;;;;;43.47;33.90;;;2.30;61.50;;;;;;5111773;28;20222;-81
2021/01/18 10:11:08;;;;;;;21.80;18.60;;;2.30;62.10;;;;;;5112782;28;20223;-81
2021/01/18 10:13:34;;;;;;;20.30;18.10;;;2.10;62.10;;;;;;5114705;28;20642;-81
2021/01/18 10:16:13;;;;;;;20.42;15.40;;;2.00;62.10;;;;;;5114857;28;20200;-81
2021/01/18 10:18:49;;;;;;;20.83;17.80;;;1.90;63.50;;;;;;5113370;28;20179;-80
2021/01/18 10:21:15;;;;;;;21.08;15.90;;;2.20;64.00;;;;;;5105748;28;20553;-82
2021/01/18 10:23:46;;;;;;;18.95;14.88;;;2.00;63.80;;;;;;5096726;28;20172;-82
2021/01/18 10:26:24;;;;;;;15.25;12.90;;;2.10;64.00;;;;;;5094099;28;20173;-81
2021/01/18 10:28:59;;;;;;;17.00;12.55;;;1.80;62.30;;;;;;5096018;28;20184;-82
2021/01/18 10:31:34;;;;;;;23.77;14.65;;;1.90;62.90;;;;;;5105000;28;20776;-81
2021/01/18 10:34:22;;;;;;;19.63;14.70;;;1.70;65.60;;;;;;5112663;28;20188;-81
2021/01/18 10:36:53;;;;;;;18.45;13.13;;;1.60;63.40;;;;;;5096165;28;20223;-81
2021/01/18 10:39:35;;;;;;;17.17;13.18;;;1.40;64.30;;;;;;5116487;28;20184;-82
2021/01/18 10:42:13;;;;;;;22.75;17.45;;;1.60;62.80;;;;;;5102497;28;20187;-81
2021/01/18 10:44:47;;;;;;;31.17;25.42;;;1.50;64.90;;;;;;5116190;28;20187;-80
2021/01/18 10:47:13;;;;;;;18.88;15.40;;;1.80;63.80;;;;;;5099028;28;20192;-80
2021/01/18 10:49:39;;;;;;;21.33;16.20;;;1.80;63.90;;;;;;5104824;28;20184;-81
2021/01/18 10:52:09;;;;;;;18.27;15.03;;;1.70;63.30;;;;;;5116624;27;20184;-80
2021/01/18 10:54:35;;;;;;;17.48;12.50;;;1.50;63.50;;;;;;5115471;28;20219;-81
2021/01/18 10:57:02;;;;;;;17.88;13.77;;;1.50;64.80;;;;;;5100016;28;20187;-79
2021/01/18 11:02:55;;;;;;;16.10;12.40;;;1.70;65.30;;;;;;5102173;28;20214;-79
2021/01/18 11:05:32;;;;;;;19.10;13.95;;;1.90;66.80;;;;;;5115222;28;20643;-79
2021/01/18 11:08:06;;;;;;;20.05;13.60;;;1.80;65.30;;;;;;5115085;28;20332;-80
2021/01/18 11:10:44;;;;;;;19.30;14.05;;;1.70;66.70;;;;;;5112274;28;20210;-80
2021/01/18 11:13:17;;;;;;;22.60;16.35;;;1.80;66.30;;;;;;5096293;28;20160;-80
2021/01/18 11:15:45;;;;;;;20.40;15.05;;;1.80;65.50;;;;;;5108963;28;20224;-80
2021/01/18 11:18:12;;;;;;;24.08;17.50;;;1.70;67.30;;;;;;5123310;27;20258;-80
2021/01/18 11:20:39;;;;;;;21.90;15.80;;;1.80;65.10;;;;;;5111799;27;20188;-80
2021/01/18 11:23:11;;;;;;;24.55;16.83;;;1.40;66.70;;;;;;5104124;27;20188;-79
2021/01/18 11:25:37;;;;;;;21.33;16.10;;;1.30;67.90;;;;;;5115058;27;20185;-80
2021/01/18 11:28:11;;;;;;;27.77;16.75;;;1.30;68.20;;;;;;5116597;28;20210;-80
2021/01/18 11:30:37;;;;;;;22.50;15.57;;;1.30;69.30;;;;;;5113913;28;20665;-80
2021/01/18 11:33:04;;;;;;;21.00;15.50;;;1.10;67.50;;;;;;5104866;28;20179;-80
2021/01/18 11:35:29;;;;;;;24.42;16.10;;;1.10;69.60;;;;;;5110147;28;20462;-81
2021/01/18 11:37:55;;;;;;;19.10;15.10;;;1.20;69.70;;;;;;5097105;28;20169;-79
2021/01/18 11:40:21;;;;;;;22.03;14.50;;;1.00;69.20;;;;;;5117041;27;20175;-81
2021/01/18 11:42:46;;;;;;;22.37;14.47;;;0.90;69.50;;;;;;5095880;28;20187;-81
2021/01/18 11:45:13;;;;;;;21.13;15.93;;;0.70;69.70;;;;;;5109487;28;20196;-81
2021/01/18 11:47:39;;;;;;;22.75;17.10;;;0.80;71.20;;;;;;5096386;28;20184;-81
2021/01/18 11:50:07;;;;;;;23.67;16.27;;;0.70;71.70;;;;;;5109677;28;20180;-81
2021/01/18 11:52:39;;;;;;;20.70;15.15;;;0.60;71.50;;;;;;5096359;28;20323;-81
2021/01/18 11:55:05;;;;;;;34.03;21.98;;;0.80;71.60;;;;;;5111393;28;20250;-80
2021/01/18 11:57:31;;;;;;;26.92;17.70;;;0.80;74.40;;;;;;5119269;27;20214;-81
2021/01/18 11:59:57;;;;;;;27.17;17.70;;;0.70;72.20;;;;;;5122651;27;20214;-81
2021/01/18 12:02:22;;;;;;;26.60;18.43;;;0.70;72.70;;;;;;5115976;28;20184;-80
2021/01/18 12:04:48;;;;;;;25.03;19.20;;;0.60;74.00;;;;;;5114943;27;20191;-81
2021/01/18 12:07:14;;;;;;;25.93;18.60;;;0.50;76.40;;;;;;5101252;28;20242;-80
2021/01/18 12:09:40;;;;;;;24.92;16.85;;;0.40;75.20;;;;;;5114790;28;20311;-80
2021/01/18 12:12:06;;;;;;;28.17;19.50;;;0.50;75.20;;;;;;5106227;28;20246;-81
2021/01/18 12:14:32;;;;;;;24.52;17.38;;;0.30;76.10;;;;;;5111978;28;20406;-81
2021/01/18 12:17:02;;;;;;;21.90;16.60;;;0.20;75.90;;;;;;5101793;28;20534;-81
2021/01/18 12:19:28;;;;;;;30.27;21.90;;;0.10;77.10;;;;;;5103766;28;20229;-81
2021/01/18 12:21:54;;;;;;;25.73;17.80;;;0.20;79.70;;;;;;5100361;28;20580;-81
2021/01/18 12:24:20;;;;;;;27.77;18.63;;;0.10;78.70;;;;;;5100622;28;20525;-81
2021/01/18 12:26:50;;;;;;;27.40;18.43;;;0.10;78.50;;;;;;5101463;28;20184;-81
2021/01/18 12:29:16;;;;;;;32.92;20.80;;;0.10;79.70;;;;;;5101843;28;20432;-80
2021/01/18 12:31:42;;;;;;;26.50;17.80;;;0.20;80.20;;;;;;5104358;28;20636;-80
2021/01/18 12:34:07;;;;;;;39.80;23.73;;;0.20;80.60;;;;;;5101547;27;20436;-80
2021/01/18 12:36:36;;;;;;;33.20;23.27;;;0.10;81.30;;;;;;5110569;28;20651;-80
2021/01/18 12:39:04;;;;;;;33.35;21.80;;;0.20;81.00;;;;;;5107016;28;20184;-81
2021/01/18 12:41:30;;;;;;;26.95;18.23;;;0.10;81.00;;;;;;5118329;27;20199;-81
2021/01/18 12:43:55;;;;;;;27.60;18.33;;;0.10;81.20;;;;;;5125543;27;20199;-80
2021/01/18 12:46:21;;;;;;;27.70;18.27;;;0.10;83.20;;;;;;5107820;27;20210;-81
2021/01/18 12:48:47;;;;;;;154.60;68.60;;;0.10;81.90;;;;;;5122369;27;20184;-81
2021/01/18 12:51:14;;;;;;;216.53;104.53;;;0.00;83.00;;;;;;5113483;27;20180;-80
2021/01/18 12:53:43;;;;;;;33.63;23.27;;;0.10;83.80;;;;;;5112967;28;20231;-80